sensor_id;sensor_type;location;lat;lon;timestamp;P1;durP1;ratioP1;P2;durP2;ratioP2
66095;SDS011;53861;53.422;14.530;2023-04-24T00:01:32;26.52;;;11.50;;
66095;SDS011;53861;53.422;14.530;2023-04-24T00:04:03;32.90;;;11.65;;
66095;SDS011;53861;53.422;14.530;2023-04-24T00:06:32;26.70;;;12.30;;
66095;SDS011;53861;53.422;14.530;2023-04-24T00:08:59;28.05;;;11.65;;
66095;SDS011;53861;53.422;14.530;2023-04-24T00:11:42;26.05;;;11.73;;
66095;SDS011;53861;53.422;14.530;2023-04-24T00:14:12;28.15;;;11.43;;
66095;SDS011;53861;53.422;14.530;2023-04-24T00:16:48;22.20;;;10.57;;
66095;SDS011;53861;53.422;14.530;2023-04-24T00:19:26;27.17;;;10.38;;
66095;SDS011;53861;53.422;14.530;2023-04-24T00:21:55;25.70;;;10.40;;
66095;SDS011;53861;53.422;14.530;2023-04-24T00:24:34;24.45;;;10.32;;
66095;SDS011;53861;53.422;14.530;2023-04-24T00:27:07;25.00;;;10.88;;
66095;SDS011;53861;53.422;14.530;2023-04-24T00:29:34;27.90;;;10.85;;
66095;SDS011;53861;53.422;14.530;2023-04-24T00:32:02;24.75;;;10.52;;
66095;SDS011;53861;53.422;14.530;2023-04-24T00:34:34;24.67;;;10.52;;
66095;SDS011;53861;53.422;14.530;2023-04-24T00:37:04;27.05;;;10.48;;
66095;SDS011;53861;53.422;14.530;2023-04-24T00:39:33;23.55;;;9.60;;
66095;SDS011;53861;53.422;14.530;2023-04-24T00:42:05;22.73;;;9.40;;
66095;SDS011;53861;53.422;14.530;2023-04-24T00:44:34;25.25;;;10.40;;
66095;SDS011;53861;53.422;14.530;2023-04-24T00:47:08;24.63;;;9.45;;
66095;SDS011;53861;53.422;14.530;2023-04-24T00:49:43;22.67;;;8.82;;
66095;SDS011;53861;53.422;14.530;2023-04-24T00:52:13;25.95;;;10.32;;
66095;SDS011;53861;53.422;14.530;2023-04-24T00:54:43;26.25;;;9.88;;
66095;SDS011;53861;53.422;14.530;2023-04-24T00:57:13;23.65;;;9.52;;
66095;SDS011;53861;53.422;14.530;2023-04-24T01:02:14;21.77;;;8.95;;
66095;SDS011;53861;53.422;14.530;2023-04-24T01:04:46;20.90;;;8.93;;
66095;SDS011;53861;53.422;14.530;2023-04-24T01:07:23;25.02;;;8.63;;
66095;SDS011;53861;53.422;14.530;2023-04-24T01:09:56;20.38;;;8.95;;
66095;SDS011;53861;53.422;14.530;2023-04-24T01:12:24;21.25;;;9.68;;
66095;SDS011;53861;53.422;14.530;2023-04-24T01:14:57;20.25;;;8.70;;
66095;SDS011;53861;53.422;14.530;2023-04-24T01:17:26;22.10;;;9.80;;
66095;SDS011;53861;53.422;14.530;2023-04-24T01:19:56;24.40;;;9.68;;
66095;SDS011;53861;53.422;14.530;2023-04-24T01:22:32;22.88;;;9.55;;
66095;SDS011;53861;53.422;14.530;2023-04-24T01:25:03;21.48;;;9.90;;
66095;SDS011;53861;53.422;14.530;2023-04-24T01:27:36;23.00;;;10.57;;
66095;SDS011;53861;53.422;14.530;2023-04-24T01:30:09;21.23;;;9.80;;
66095;SDS011;53861;53.422;14.530;2023-04-24T01:32:47;22.85;;;10.45;;
66095;SDS011;53861;53.422;14.530;2023-04-24T01:35:20;21.27;;;9.57;;
66095;SDS011;53861;53.422;14.530;2023-04-24T01:40:27;32.92;;;11.30;;
66095;SDS011;53861;53.422;14.530;2023-04-24T01:43:03;24.77;;;10.85;;
66095;SDS011;53861;53.422;14.530;2023-04-24T01:45:31;25.85;;;11.68;;
66095;SDS011;53861;53.422;14.530;2023-04-24T01:47:58;28.58;;;11.85;;
66095;SDS011;53861;53.422;14.530;2023-04-24T01:50:35;28.13;;;12.73;;
66095;SDS011;53861;53.422;14.530;2023-04-24T01:53:10;29.63;;;12.30;;
66095;SDS011;53861;53.422;14.530;2023-04-24T01:55:38;27.10;;;12.10;;
66095;SDS011;53861;53.422;14.530;2023-04-24T01:58:13;29.55;;;13.00;;
66095;SDS011;53861;53.422;14.530;2023-04-24T02:00:47;31.00;;;12.90;;
66095;SDS011;53861;53.422;14.530;2023-04-24T02:03:19;31.30;;;13.05;;
66095;SDS011;53861;53.422;14.530;2023-04-24T02:05:46;32.50;;;13.68;;
66095;SDS011;53861;53.422;14.530;2023-04-24T02:08:30;29.95;;;12.93;;
66095;SDS011;53861;53.422;14.530;2023-04-24T02:11:03;28.50;;;13.27;;
66095;SDS011;53861;53.422;14.530;2023-04-24T02:13:35;32.83;;;13.75;;
66095;SDS011;53861;53.422;14.530;2023-04-24T02:16:08;30.45;;;13.07;;
66095;SDS011;53861;53.422;14.530;2023-04-24T02:18:43;31.63;;;12.73;;
66095;SDS011;53861;53.422;14.530;2023-04-24T02:21:13;28.98;;;12.45;;
66095;SDS011;53861;53.422;14.530;2023-04-24T02:23:43;31.52;;;13.93;;
66095;SDS011;53861;53.422;14.530;2023-04-24T02:26:14;28.30;;;13.00;;
66095;SDS011;53861;53.422;14.530;2023-04-24T02:28:42;30.25;;;13.45;;
66095;SDS011;53861;53.422;14.530;2023-04-24T02:31:21;30.02;;;12.85;;
66095;SDS011;53861;53.422;14.530;2023-04-24T02:33:55;30.20;;;13.25;;
66095;SDS011;53861;53.422;14.530;2023-04-24T02:36:32;30.38;;;12.80;;
66095;SDS011;53861;53.422;14.530;2023-04-24T02:39:04;31.85;;;13.57;;
66095;SDS011;53861;53.422;14.530;2023-04-24T02:41:38;29.55;;;13.40;;
66095;SDS011;53861;53.422;14.530;2023-04-24T02:44:06;31.55;;;13.73;;
66095;SDS011;53861;53.422;14.530;2023-04-24T02:46:39;29.60;;;13.23;;
66095;SDS011;53861;53.422;14.530;2023-04-24T02:49:07;33.53;;;13.32;;
66095;SDS011;53861;53.422;14.530;2023-04-24T02:51:34;31.67;;;12.98;;
66095;SDS011;53861;53.422;14.530;2023-04-24T02:54:08;29.85;;;12.90;;
66095;SDS011;53861;53.422;14.530;2023-04-24T02:59:07;31.05;;;12.75;;
66095;SDS011;53861;53.422;14.530;2023-04-24T03:01:38;31.02;;;12.65;;
66095;SDS011;53861;53.422;14.530;2023-04-24T03:04:05;30.17;;;12.38;;
66095;SDS011;53861;53.422;14.530;2023-04-24T03:06:33;27.48;;;12.73;;
66095;SDS011;53861;53.422;14.530;2023-04-24T03:09:07;28.02;;;11.98;;
66095;SDS011;53861;53.422;14.530;2023-04-24T03:11:39;28.85;;;12.23;;
66095;SDS011;53861;53.422;14.530;2023-04-24T03:14:07;26.17;;;11.85;;
66095;SDS011;53861;53.422;14.530;2023-04-24T03:16:36;32.78;;;12.98;;
66095;SDS011;53861;53.422;14.530;2023-04-24T03:19:08;26.55;;;12.23;;
66095;SDS011;53861;53.422;14.530;2023-04-24T03:21:46;25.75;;;11.73;;
66095;SDS011;53861;53.422;14.530;2023-04-24T03:24:15;28.83;;;12.82;;
66095;SDS011;53861;53.422;14.530;2023-04-24T03:26:48;29.70;;;12.20;;
66095;SDS011;53861;53.422;14.530;2023-04-24T03:29:16;29.80;;;12.80;;
66095;SDS011;53861;53.422;14.530;2023-04-24T03:31:45;30.25;;;12.70;;
66095;SDS011;53861;53.422;14.530;2023-04-24T03:34:17;29.35;;;13.30;;
66095;SDS011;53861;53.422;14.530;2023-04-24T03:36:47;31.33;;;13.27;;
66095;SDS011;53861;53.422;14.530;2023-04-24T03:39:17;29.23;;;13.05;;
66095;SDS011;53861;53.422;14.530;2023-04-24T03:41:48;32.55;;;13.40;;
66095;SDS011;53861;53.422;14.530;2023-04-24T03:44:17;29.10;;;12.80;;
66095;SDS011;53861;53.422;14.530;2023-04-24T03:46:54;31.15;;;13.30;;
66095;SDS011;53861;53.422;14.530;2023-04-24T03:49:24;33.40;;;13.60;;
66095;SDS011;53861;53.422;14.530;2023-04-24T03:52:05;28.10;;;12.77;;
66095;SDS011;53861;53.422;14.530;2023-04-24T03:54:45;29.85;;;13.60;;
66095;SDS011;53861;53.422;14.530;2023-04-24T04:00:02;31.25;;;13.57;;
66095;SDS011;53861;53.422;14.530;2023-04-24T04:02:45;30.58;;;13.23;;
66095;SDS011;53861;53.422;14.530;2023-04-24T04:05:25;33.13;;;13.30;;
66095;SDS011;53861;53.422;14.530;2023-04-24T04:08:00;26.30;;;12.32;;
66095;SDS011;53861;53.422;14.530;2023-04-24T04:10:30;35.53;;;14.18;;
66095;SDS011;53861;53.422;14.530;2023-04-24T04:12:59;31.77;;;13.38;;
66095;SDS011;53861;53.422;14.530;2023-04-24T04:15:27;28.58;;;13.35;;
66095;SDS011;53861;53.422;14.530;2023-04-24T04:17:54;34.10;;;13.13;;
66095;SDS011;53861;53.422;14.530;2023-04-24T04:20:26;35.00;;;14.18;;
66095;SDS011;53861;53.422;14.530;2023-04-24T04:23:04;35.58;;;14.40;;
66095;SDS011;53861;53.422;14.530;2023-04-24T04:25:36;34.08;;;14.85;;
66095;SDS011;53861;53.422;14.530;2023-04-24T04:28:14;31.10;;;14.00;;
66095;SDS011;53861;53.422;14.530;2023-04-24T04:30:41;35.40;;;13.82;;
66095;SDS011;53861;53.422;14.530;2023-04-24T04:33:15;30.88;;;14.23;;
66095;SDS011;53861;53.422;14.530;2023-04-24T04:35:44;36.25;;;15.38;;
66095;SDS011;53861;53.422;14.530;2023-04-24T04:38:14;38.00;;;15.75;;
66095;SDS011;53861;53.422;14.530;2023-04-24T04:40:56;35.75;;;15.73;;
66095;SDS011;53861;53.422;14.530;2023-04-24T04:43:27;35.25;;;15.75;;
66095;SDS011;53861;53.422;14.530;2023-04-24T04:45:59;34.33;;;15.23;;
66095;SDS011;53861;53.422;14.530;2023-04-24T04:48:29;37.72;;;16.45;;
66095;SDS011;53861;53.422;14.530;2023-04-24T04:51:04;38.63;;;16.02;;
66095;SDS011;53861;53.422;14.530;2023-04-24T04:53:34;37.17;;;15.80;;
66095;SDS011;53861;53.422;14.530;2023-04-24T04:56:08;34.65;;;16.52;;
66095;SDS011;53861;53.422;14.530;2023-04-24T04:58:35;31.00;;;15.32;;
66095;SDS011;53861;53.422;14.530;2023-04-24T05:01:09;40.33;;;15.38;;
66095;SDS011;53861;53.422;14.530;2023-04-24T05:03:39;38.22;;;16.08;;
66095;SDS011;53861;53.422;14.530;2023-04-24T05:06:07;32.13;;;14.35;;
66095;SDS011;53861;53.422;14.530;2023-04-24T05:08:34;37.65;;;15.18;;
66095;SDS011;53861;53.422;14.530;2023-04-24T05:11:13;35.60;;;15.82;;
66095;SDS011;53861;53.422;14.530;2023-04-24T05:13:43;37.08;;;16.02;;
66095;SDS011;53861;53.422;14.530;2023-04-24T05:16:15;32.78;;;15.48;;
66095;SDS011;53861;53.422;14.530;2023-04-24T05:18:43;37.33;;;16.25;;
66095;SDS011;53861;53.422;14.530;2023-04-24T05:21:10;36.58;;;17.17;;
66095;SDS011;53861;53.422;14.530;2023-04-24T05:23:40;41.25;;;15.85;;
66095;SDS011;53861;53.422;14.530;2023-04-24T05:26:14;36.80;;;16.57;;
66095;SDS011;53861;53.422;14.530;2023-04-24T05:28:43;32.53;;;15.20;;
66095;SDS011;53861;53.422;14.530;2023-04-24T05:31:10;34.97;;;15.07;;
66095;SDS011;53861;53.422;14.530;2023-04-24T05:33:39;43.80;;;15.95;;
66095;SDS011;53861;53.422;14.530;2023-04-24T05:36:06;36.17;;;15.93;;
66095;SDS011;53861;53.422;14.530;2023-04-24T05:38:33;35.67;;;16.20;;
66095;SDS011;53861;53.422;14.530;2023-04-24T05:41:01;39.33;;;16.63;;
66095;SDS011;53861;53.422;14.530;2023-04-24T05:43:30;39.60;;;16.88;;
66095;SDS011;53861;53.422;14.530;2023-04-24T05:45:57;31.00;;;15.00;;
66095;SDS011;53861;53.422;14.530;2023-04-24T05:48:25;33.80;;;14.63;;
66095;SDS011;53861;53.422;14.530;2023-04-24T05:50:52;32.28;;;15.55;;
66095;SDS011;53861;53.422;14.530;2023-04-24T05:53:19;36.92;;;16.98;;
66095;SDS011;53861;53.422;14.530;2023-04-24T05:55:47;38.72;;;19.35;;
66095;SDS011;53861;53.422;14.530;2023-04-24T05:58:14;33.95;;;16.15;;
66095;SDS011;53861;53.422;14.530;2023-04-24T06:00:43;34.33;;;16.63;;
66095;SDS011;53861;53.422;14.530;2023-04-24T06:03:11;41.92;;;16.92;;
66095;SDS011;53861;53.422;14.530;2023-04-24T06:05:39;36.67;;;17.00;;
66095;SDS011;53861;53.422;14.530;2023-04-24T06:08:06;37.83;;;16.15;;
66095;SDS011;53861;53.422;14.530;2023-04-24T06:10:33;36.72;;;16.30;;
66095;SDS011;53861;53.422;14.530;2023-04-24T06:13:01;35.67;;;17.10;;
66095;SDS011;53861;53.422;14.530;2023-04-24T06:15:28;40.38;;;16.40;;
66095;SDS011;53861;53.422;14.530;2023-04-24T06:18:01;46.10;;;18.63;;
66095;SDS011;53861;53.422;14.530;2023-04-24T06:20:29;34.17;;;13.95;;
66095;SDS011;53861;53.422;14.530;2023-04-24T06:22:56;31.38;;;14.02;;
66095;SDS011;53861;53.422;14.530;2023-04-24T06:25:24;33.30;;;13.55;;
66095;SDS011;53861;53.422;14.530;2023-04-24T06:27:52;28.90;;;12.80;;
66095;SDS011;53861;53.422;14.530;2023-04-24T06:30:19;29.05;;;13.18;;
66095;SDS011;53861;53.422;14.530;2023-04-24T06:32:46;26.85;;;12.95;;
66095;SDS011;53861;53.422;14.530;2023-04-24T06:35:15;26.52;;;13.43;;
66095;SDS011;53861;53.422;14.530;2023-04-24T06:37:42;28.15;;;13.07;;
66095;SDS011;53861;53.422;14.530;2023-04-24T06:40:10;28.60;;;12.80;;
66095;SDS011;53861;53.422;14.530;2023-04-24T06:42:37;33.72;;;12.68;;
66095;SDS011;53861;53.422;14.530;2023-04-24T06:45:05;28.45;;;12.57;;
66095;SDS011;53861;53.422;14.530;2023-04-24T06:47:33;28.85;;;13.20;;
66095;SDS011;53861;53.422;14.530;2023-04-24T06:50:00;29.08;;;13.00;;
66095;SDS011;53861;53.422;14.530;2023-04-24T06:52:29;26.02;;;12.60;;
66095;SDS011;53861;53.422;14.530;2023-04-24T06:55:00;27.13;;;12.27;;
66095;SDS011;53861;53.422;14.530;2023-04-24T06:57:28;27.02;;;12.90;;
66095;SDS011;53861;53.422;14.530;2023-04-24T06:59:56;16.48;;;7.45;;
66095;SDS011;53861;53.422;14.530;2023-04-24T07:02:23;24.85;;;10.15;;
66095;SDS011;53861;53.422;14.530;2023-04-24T07:04:51;26.83;;;12.55;;
66095;SDS011;53861;53.422;14.530;2023-04-24T07:07:18;27.60;;;12.73;;
66095;SDS011;53861;53.422;14.530;2023-04-24T07:09:47;24.60;;;11.90;;
66095;SDS011;53861;53.422;14.530;2023-04-24T07:12:16;25.40;;;12.10;;
66095;SDS011;53861;53.422;14.530;2023-04-24T07:14:46;18.02;;;8.57;;
66095;SDS011;53861;53.422;14.530;2023-04-24T07:17:13;26.20;;;12.70;;
66095;SDS011;53861;53.422;14.530;2023-04-24T07:19:41;25.98;;;11.98;;
66095;SDS011;53861;53.422;14.530;2023-04-24T07:22:09;24.17;;;10.98;;
66095;SDS011;53861;53.422;14.530;2023-04-24T07:24:42;26.25;;;11.40;;
66095;SDS011;53861;53.422;14.530;2023-04-24T07:27:10;29.42;;;11.80;;
66095;SDS011;53861;53.422;14.530;2023-04-24T07:29:40;22.67;;;11.10;;
66095;SDS011;53861;53.422;14.530;2023-04-24T07:32:07;21.83;;;11.52;;
66095;SDS011;53861;53.422;14.530;2023-04-24T07:34:35;22.65;;;11.60;;
66095;SDS011;53861;53.422;14.530;2023-04-24T07:37:02;22.83;;;10.77;;
66095;SDS011;53861;53.422;14.530;2023-04-24T07:39:29;24.23;;;11.43;;
66095;SDS011;53861;53.422;14.530;2023-04-24T07:41:57;21.30;;;10.77;;
66095;SDS011;53861;53.422;14.530;2023-04-24T07:44:26;19.92;;;10.25;;
66095;SDS011;53861;53.422;14.530;2023-04-24T07:46:54;20.98;;;9.57;;
66095;SDS011;53861;53.422;14.530;2023-04-24T07:49:22;17.05;;;7.00;;
66095;SDS011;53861;53.422;14.530;2023-04-24T07:51:49;18.58;;;9.95;;
66095;SDS011;53861;53.422;14.530;2023-04-24T07:54:17;17.08;;;8.85;;
66095;SDS011;53861;53.422;14.530;2023-04-24T07:56:44;21.77;;;9.93;;
66095;SDS011;53861;53.422;14.530;2023-04-24T07:59:11;20.90;;;10.45;;
66095;SDS011;53861;53.422;14.530;2023-04-24T08:01:40;19.88;;;9.63;;
66095;SDS011;53861;53.422;14.530;2023-04-24T08:04:07;17.65;;;8.68;;
66095;SDS011;53861;53.422;14.530;2023-04-24T08:06:34;26.73;;;10.77;;
66095;SDS011;53861;53.422;14.530;2023-04-24T08:09:02;16.95;;;8.07;;
66095;SDS011;53861;53.422;14.530;2023-04-24T08:11:29;15.52;;;8.50;;
66095;SDS011;53861;53.422;14.530;2023-04-24T08:13:57;15.32;;;8.80;;
66095;SDS011;53861;53.422;14.530;2023-04-24T08:16:24;16.27;;;8.45;;
66095;SDS011;53861;53.422;14.530;2023-04-24T08:18:53;13.57;;;7.55;;
66095;SDS011;53861;53.422;14.530;2023-04-24T08:21:20;15.38;;;8.38;;
66095;SDS011;53861;53.422;14.530;2023-04-24T08:23:48;16.27;;;8.70;;
66095;SDS011;53861;53.422;14.530;2023-04-24T08:26:15;16.42;;;8.43;;
66095;SDS011;53861;53.422;14.530;2023-04-24T08:28:43;16.15;;;8.65;;
66095;SDS011;53861;53.422;14.530;2023-04-24T08:31:10;24.45;;;8.95;;
66095;SDS011;53861;53.422;14.530;2023-04-24T08:33:38;17.98;;;8.50;;
66095;SDS011;53861;53.422;14.530;2023-04-24T08:36:07;11.73;;;5.20;;
66095;SDS011;53861;53.422;14.530;2023-04-24T08:38:35;91.10;;;11.88;;
66095;SDS011;53861;53.422;14.530;2023-04-24T08:41:02;15.20;;;7.63;;
66095;SDS011;53861;53.422;14.530;2023-04-24T08:43:31;14.65;;;7.72;;
66095;SDS011;53861;53.422;14.530;2023-04-24T08:46:03;15.15;;;7.63;;
66095;SDS011;53861;53.422;14.530;2023-04-24T08:48:31;60.88;;;10.45;;
66095;SDS011;53861;53.422;14.530;2023-04-24T08:50:59;22.42;;;8.18;;
66095;SDS011;53861;53.422;14.530;2023-04-24T08:53:28;11.60;;;7.10;;
66095;SDS011;53861;53.422;14.530;2023-04-24T08:55:56;27.15;;;8.10;;
66095;SDS011;53861;53.422;14.530;2023-04-24T08:58:24;11.82;;;6.13;;
66095;SDS011;53861;53.422;14.530;2023-04-24T09:00:53;101.75;;;10.88;;
66095;SDS011;53861;53.422;14.530;2023-04-24T09:03:22;11.27;;;6.43;;
66095;SDS011;53861;53.422;14.530;2023-04-24T09:05:50;35.80;;;8.18;;
66095;SDS011;53861;53.422;14.530;2023-04-24T09:08:20;9.88;;;6.32;;
66095;SDS011;53861;53.422;14.530;2023-04-24T09:10:52;11.38;;;6.30;;
66095;SDS011;53861;53.422;14.530;2023-04-24T09:13:22;10.23;;;6.20;;
66095;SDS011;53861;53.422;14.530;2023-04-24T09:15:50;10.65;;;5.53;;
66095;SDS011;53861;53.422;14.530;2023-04-24T09:18:19;11.20;;;6.50;;
66095;SDS011;53861;53.422;14.530;2023-04-24T09:20:59;10.27;;;5.28;;
66095;SDS011;53861;53.422;14.530;2023-04-24T09:23:28;11.00;;;6.22;;
66095;SDS011;53861;53.422;14.530;2023-04-24T09:25:58;14.85;;;8.20;;
66095;SDS011;53861;53.422;14.530;2023-04-24T09:28:28;15.07;;;7.78;;
66095;SDS011;53861;53.422;14.530;2023-04-24T09:31:03;11.93;;;7.13;;
66095;SDS011;53861;53.422;14.530;2023-04-24T09:33:32;10.75;;;6.50;;
66095;SDS011;53861;53.422;14.530;2023-04-24T09:36:00;15.55;;;6.55;;
66095;SDS011;53861;53.422;14.530;2023-04-24T09:38:31;16.05;;;6.55;;
66095;SDS011;53861;53.422;14.530;2023-04-24T09:41:01;12.38;;;5.30;;
66095;SDS011;53861;53.422;14.530;2023-04-24T09:43:29;9.57;;;5.25;;
66095;SDS011;53861;53.422;14.530;2023-04-24T09:45:57;10.75;;;5.40;;
66095;SDS011;53861;53.422;14.530;2023-04-24T09:48:32;9.18;;;5.72;;
66095;SDS011;53861;53.422;14.530;2023-04-24T09:51:01;7.70;;;4.78;;
66095;SDS011;53861;53.422;14.530;2023-04-24T09:53:29;9.77;;;4.78;;
66095;SDS011;53861;53.422;14.530;2023-04-24T09:56:03;11.25;;;5.50;;
66095;SDS011;53861;53.422;14.530;2023-04-24T09:58:34;10.30;;;5.43;;
66095;SDS011;53861;53.422;14.530;2023-04-24T10:01:02;10.13;;;5.10;;
66095;SDS011;53861;53.422;14.530;2023-04-24T10:03:30;7.78;;;5.07;;
66095;SDS011;53861;53.422;14.530;2023-04-24T10:05:58;7.65;;;4.25;;
66095;SDS011;53861;53.422;14.530;2023-04-24T10:08:26;8.15;;;4.70;;
66095;SDS011;53861;53.422;14.530;2023-04-24T10:10:59;7.20;;;3.83;;
66095;SDS011;53861;53.422;14.530;2023-04-24T10:13:28;5.10;;;3.10;;
66095;SDS011;53861;53.422;14.530;2023-04-24T10:15:57;7.15;;;4.20;;
66095;SDS011;53861;53.422;14.530;2023-04-24T10:18:27;7.15;;;4.35;;
66095;SDS011;53861;53.422;14.530;2023-04-24T10:20:54;9.20;;;4.80;;
66095;SDS011;53861;53.422;14.530;2023-04-24T10:23:23;9.57;;;4.28;;
66095;SDS011;53861;53.422;14.530;2023-04-24T10:25:51;7.03;;;4.53;;
66095;SDS011;53861;53.422;14.530;2023-04-24T10:28:19;9.88;;;4.70;;
66095;SDS011;53861;53.422;14.530;2023-04-24T10:30:49;8.57;;;4.68;;
66095;SDS011;53861;53.422;14.530;2023-04-24T10:33:17;13.95;;;6.72;;
66095;SDS011;53861;53.422;14.530;2023-04-24T10:35:45;10.35;;;6.18;;
66095;SDS011;53861;53.422;14.530;2023-04-24T10:38:16;7.43;;;4.95;;
66095;SDS011;53861;53.422;14.530;2023-04-24T10:40:49;9.13;;;4.32;;
66095;SDS011;53861;53.422;14.530;2023-04-24T10:43:17;7.82;;;4.20;;
66095;SDS011;53861;53.422;14.530;2023-04-24T10:48:30;7.97;;;3.85;;
66095;SDS011;53861;53.422;14.530;2023-04-24T10:50:58;7.20;;;4.25;;
66095;SDS011;53861;53.422;14.530;2023-04-24T10:53:27;6.50;;;4.13;;
66095;SDS011;53861;53.422;14.530;2023-04-24T10:55:58;5.30;;;3.78;;
66095;SDS011;53861;53.422;14.530;2023-04-24T10:58:35;6.32;;;4.20;;
66095;SDS011;53861;53.422;14.530;2023-04-24T11:01:07;6.38;;;4.15;;
66095;SDS011;53861;53.422;14.530;2023-04-24T11:03:34;6.63;;;2.85;;
66095;SDS011;53861;53.422;14.530;2023-04-24T11:06:03;6.93;;;4.13;;
66095;SDS011;53861;53.422;14.530;2023-04-24T11:08:37;7.68;;;3.58;;
66095;SDS011;53861;53.422;14.530;2023-04-24T11:11:09;5.25;;;3.40;;
66095;SDS011;53861;53.422;14.530;2023-04-24T11:16:35;11.00;;;3.53;;
66095;SDS011;53861;53.422;14.530;2023-04-24T11:19:06;4.43;;;2.90;;
66095;SDS011;53861;53.422;14.530;2023-04-24T11:21:40;6.72;;;3.80;;
66095;SDS011;53861;53.422;14.530;2023-04-24T11:24:22;8.90;;;3.55;;
66095;SDS011;53861;53.422;14.530;2023-04-24T11:26:54;6.00;;;2.67;;
66095;SDS011;53861;53.422;14.530;2023-04-24T11:29:23;5.32;;;2.80;;
66095;SDS011;53861;53.422;14.530;2023-04-24T11:32:17;7.18;;;2.78;;
66095;SDS011;53861;53.422;14.530;2023-04-24T11:34:51;6.03;;;3.05;;
66095;SDS011;53861;53.422;14.530;2023-04-24T11:37:19;5.95;;;3.10;;
66095;SDS011;53861;53.422;14.530;2023-04-24T11:39:47;6.45;;;2.80;;
66095;SDS011;53861;53.422;14.530;2023-04-24T11:42:17;4.55;;;2.55;;
66095;SDS011;53861;53.422;14.530;2023-04-24T11:44:45;4.72;;;2.72;;
66095;SDS011;53861;53.422;14.530;2023-04-24T11:47:13;5.20;;;2.33;;
66095;SDS011;53861;53.422;14.530;2023-04-24T11:49:42;4.80;;;2.85;;
66095;SDS011;53861;53.422;14.530;2023-04-24T11:52:09;6.00;;;2.72;;
66095;SDS011;53861;53.422;14.530;2023-04-24T11:54:37;9.77;;;2.40;;
66095;SDS011;53861;53.422;14.530;2023-04-24T11:57:05;5.28;;;2.30;;
66095;SDS011;53861;53.422;14.530;2023-04-24T11:59:35;5.13;;;1.80;;
66095;SDS011;53861;53.422;14.530;2023-04-24T12:02:03;11.70;;;2.63;;
66095;SDS011;53861;53.422;14.530;2023-04-24T12:04:38;3.78;;;2.00;;
66095;SDS011;53861;53.422;14.530;2023-04-24T12:07:08;3.42;;;1.60;;
66095;SDS011;53861;53.422;14.530;2023-04-24T12:09:41;8.77;;;2.40;;
66095;SDS011;53861;53.422;14.530;2023-04-24T12:12:12;3.83;;;1.83;;
66095;SDS011;53861;53.422;14.530;2023-04-24T12:14:43;4.22;;;1.83;;
66095;SDS011;53861;53.422;14.530;2023-04-24T12:17:11;8.20;;;1.90;;
66095;SDS011;53861;53.422;14.530;2023-04-24T12:19:44;9.48;;;1.90;;
66095;SDS011;53861;53.422;14.530;2023-04-24T12:22:13;4.43;;;1.60;;
66095;SDS011;53861;53.422;14.530;2023-04-24T12:25:00;37.10;;;3.20;;
66095;SDS011;53861;53.422;14.530;2023-04-24T12:27:31;3.63;;;1.67;;
66095;SDS011;53861;53.422;14.530;2023-04-24T12:30:03;5.85;;;1.55;;
66095;SDS011;53861;53.422;14.530;2023-04-24T12:34:59;3.20;;;1.33;;
66095;SDS011;53861;53.422;14.530;2023-04-24T12:37:33;4.10;;;1.30;;
66095;SDS011;53861;53.422;14.530;2023-04-24T12:40:04;4.25;;;1.67;;
66095;SDS011;53861;53.422;14.530;2023-04-24T12:42:34;6.03;;;1.80;;
66095;SDS011;53861;53.422;14.530;2023-04-24T12:45:02;3.83;;;1.90;;
66095;SDS011;53861;53.422;14.530;2023-04-24T12:47:31;3.13;;;1.60;;
66095;SDS011;53861;53.422;14.530;2023-04-24T12:49:59;2.95;;;1.52;;
66095;SDS011;53861;53.422;14.530;2023-04-24T12:52:27;3.00;;;1.13;;
66095;SDS011;53861;53.422;14.530;2023-04-24T12:54:57;3.67;;;1.40;;
66095;SDS011;53861;53.422;14.530;2023-04-24T12:57:25;2.78;;;1.15;;
66095;SDS011;53861;53.422;14.530;2023-04-24T12:59:53;4.70;;;1.50;;
66095;SDS011;53861;53.422;14.530;2023-04-24T13:02:21;3.28;;;1.30;;
66095;SDS011;53861;53.422;14.530;2023-04-24T13:04:49;2.85;;;1.38;;
66095;SDS011;53861;53.422;14.530;2023-04-24T13:07:17;4.15;;;1.55;;
66095;SDS011;53861;53.422;14.530;2023-04-24T13:09:44;2.75;;;1.40;;
66095;SDS011;53861;53.422;14.530;2023-04-24T13:12:13;3.05;;;1.50;;
66095;SDS011;53861;53.422;14.530;2023-04-24T13:14:41;2.78;;;1.40;;
66095;SDS011;53861;53.422;14.530;2023-04-24T13:17:08;3.95;;;1.50;;
66095;SDS011;53861;53.422;14.530;2023-04-24T13:19:37;3.25;;;1.10;;
66095;SDS011;53861;53.422;14.530;2023-04-24T13:22:06;2.28;;;1.10;;
66095;SDS011;53861;53.422;14.530;2023-04-24T13:24:33;2.50;;;1.30;;
66095;SDS011;53861;53.422;14.530;2023-04-24T13:27:01;2.67;;;1.20;;
66095;SDS011;53861;53.422;14.530;2023-04-24T13:29:29;4.05;;;1.30;;
66095;SDS011;53861;53.422;14.530;2023-04-24T13:31:57;4.20;;;1.80;;
66095;SDS011;53861;53.422;14.530;2023-04-24T13:34:24;2.50;;;1.40;;
66095;SDS011;53861;53.422;14.530;2023-04-24T13:36:53;2.58;;;1.20;;
66095;SDS011;53861;53.422;14.530;2023-04-24T13:39:22;1.90;;;1.00;;
66095;SDS011;53861;53.422;14.530;2023-04-24T13:41:49;4.45;;;1.30;;
66095;SDS011;53861;53.422;14.530;2023-04-24T13:44:17;4.03;;;1.27;;
66095;SDS011;53861;53.422;14.530;2023-04-24T13:46:47;5.10;;;1.40;;
66095;SDS011;53861;53.422;14.530;2023-04-24T13:49:17;3.10;;;1.40;;
66095;SDS011;53861;53.422;14.530;2023-04-24T13:51:45;2.15;;;1.17;;
66095;SDS011;53861;53.422;14.530;2023-04-24T13:54:12;4.72;;;1.30;;
66095;SDS011;53861;53.422;14.530;2023-04-24T13:56:40;2.38;;;0.98;;
66095;SDS011;53861;53.422;14.530;2023-04-24T13:59:07;2.38;;;0.85;;
66095;SDS011;53861;53.422;14.530;2023-04-24T14:01:34;2.25;;;1.00;;
66095;SDS011;53861;53.422;14.530;2023-04-24T14:04:03;3.60;;;1.02;;
66095;SDS011;53861;53.422;14.530;2023-04-24T14:06:31;2.20;;;1.00;;
66095;SDS011;53861;53.422;14.530;2023-04-24T14:08:58;2.72;;;1.10;;
66095;SDS011;53861;53.422;14.530;2023-04-24T14:11:26;1.65;;;0.82;;
66095;SDS011;53861;53.422;14.530;2023-04-24T14:13:53;2.22;;;1.10;;
66095;SDS011;53861;53.422;14.530;2023-04-24T14:16:21;1.52;;;0.90;;
66095;SDS011;53861;53.422;14.530;2023-04-24T14:18:49;3.30;;;1.00;;
66095;SDS011;53861;53.422;14.530;2023-04-24T14:21:18;5.22;;;1.08;;
66095;SDS011;53861;53.422;14.530;2023-04-24T14:23:45;1.83;;;1.00;;
66095;SDS011;53861;53.422;14.530;2023-04-24T14:26:12;13.77;;;1.30;;
66095;SDS011;53861;53.422;14.530;2023-04-24T14:28:39;2.80;;;0.90;;
66095;SDS011;53861;53.422;14.530;2023-04-24T14:31:07;1.85;;;1.00;;
66095;SDS011;53861;53.422;14.530;2023-04-24T14:33:35;1.88;;;0.88;;
66095;SDS011;53861;53.422;14.530;2023-04-24T14:39:24;12.35;;;6.60;;
66095;SDS011;53861;53.422;14.530;2023-04-24T14:41:51;8.25;;;4.32;;
66095;SDS011;53861;53.422;14.530;2023-04-24T14:45:17;2.15;;;1.15;;
66095;SDS011;53861;53.422;14.530;2023-04-24T14:48:27;4.03;;;2.00;;
66095;SDS011;53861;53.422;14.530;2023-04-24T14:51:28;3.65;;;1.70;;
66095;SDS011;53861;53.422;14.530;2023-04-24T14:54:01;4.70;;;1.92;;
66095;SDS011;53861;53.422;14.530;2023-04-24T14:56:44;3.60;;;1.80;;
66095;SDS011;53861;53.422;14.530;2023-04-24T15:02:36;5.13;;;1.75;;